createdAt,value
2017-12-10T00:01:45.179Z,80.35
2017-12-10T00:04:12.782Z,80.54
2017-12-10T00:06:40.396Z,80.70
2017-12-10T00:09:08.025Z,79.98
2017-12-10T00:11:35.788Z,79.35
2017-12-10T00:14:03.602Z,78.57
2017-12-10T00:16:32.002Z,79.74
2017-12-10T00:18:59.585Z,78.84
2017-12-10T00:21:27.194Z,78.55
2017-12-10T00:23:55.006Z,78.03
2017-12-10T00:26:22.820Z,78.47
2017-12-10T00:28:50.620Z,77.96
2017-12-10T00:31:18.206Z,77.60
2017-12-10T00:33:45.965Z,79.09
2017-12-10T00:36:13.772Z,77.54
2017-12-10T00:38:41.393Z,77.85
2017-12-10T00:41:10.094Z,82.88
2017-12-10T00:43:37.684Z,77.08
2017-12-10T00:46:05.313Z,75.34
2017-12-10T00:48:33.793Z,75.87
2017-12-10T00:51:02.181Z,76.70
2017-12-10T00:53:29.780Z,76.59
2017-12-10T00:55:57.309Z,75.30
2017-12-10T00:58:25.073Z,76.53
2017-12-10T01:00:52.682Z,75.51
2017-12-10T01:03:20.504Z,73.53
2017-12-10T01:05:48.354Z,74.09
2017-12-10T01:08:16.176Z,73.24
2017-12-10T01:10:43.733Z,73.86
2017-12-10T01:13:11.275Z,73.13
2017-12-10T01:15:38.863Z,73.00
2017-12-10T01:18:06.505Z,72.89
2017-12-10T01:20:34.355Z,73.02
2017-12-10T01:23:01.951Z,73.53
2017-12-10T01:25:29.585Z,73.41
2017-12-10T01:27:57.380Z,72.20
2017-12-10T01:30:25.018Z,72.97
2017-12-10T01:32:52.669Z,72.67
2017-12-10T01:35:20.256Z,73.10
2017-12-10T01:37:47.819Z,72.04
2017-12-10T01:40:15.355Z,71.40
2017-12-10T01:42:42.893Z,71.55
2017-12-10T01:45:11.196Z,71.40
2017-12-10T01:47:38.794Z,71.38
2017-12-10T01:50:06.717Z,70.93
2017-12-10T01:52:34.315Z,70.97
2017-12-10T01:55:02.085Z,69.99
2017-12-10T01:57:29.654Z,70.62
2017-12-10T01:59:57.277Z,71.04
2017-12-10T02:02:25.075Z,70.77
2017-12-10T02:04:52.654Z,70.71
2017-12-10T02:07:20.442Z,70.38
2017-12-10T02:09:48.299Z,70.60
2017-12-10T02:12:15.903Z,70.46
2017-12-10T02:14:43.437Z,70.48
2017-12-10T02:17:11.005Z,70.25
2017-12-10T02:19:38.778Z,70.34
2017-12-10T02:22:06.569Z,70.26
2017-12-10T02:24:34.137Z,70.71
2017-12-10T02:27:01.934Z,70.20
2017-12-10T02:29:29.732Z,70.38
2017-12-10T02:31:57.342Z,70.19
2017-12-10T02:34:25.107Z,70.92
2017-12-10T02:36:52.956Z,71.69
2017-12-10T02:39:21.504Z,72.88
2017-12-10T02:41:49.263Z,74.78
2017-12-10T02:44:17.018Z,76.30
2017-12-10T02:46:44.620Z,76.47
2017-12-10T02:49:12.160Z,77.33
2017-12-10T02:51:39.737Z,76.80
2017-12-10T02:54:07.317Z,76.39
2017-12-10T02:56:35.106Z,76.99
2017-12-10T02:59:02.870Z,75.98
2017-12-10T03:01:31.216Z,75.01
2017-12-10T03:03:58.811Z,75.52
2017-12-10T03:06:26.819Z,74.31
2017-12-10T03:08:54.602Z,74.00
2017-12-10T03:11:22.363Z,73.82
2017-12-10T03:13:49.921Z,73.62
2017-12-10T03:16:17.490Z,72.44
2017-12-10T03:18:45.980Z,72.13
2017-12-10T03:21:13.745Z,71.97
2017-12-10T03:23:41.365Z,71.01
2017-12-10T03:26:09.189Z,70.18
2017-12-10T03:28:36.961Z,70.31
2017-12-10T03:31:04.806Z,69.52
2017-12-10T03:33:32.356Z,69.74
2017-12-10T03:36:01.064Z,69.48
2017-12-10T03:38:29.273Z,68.77
2017-12-10T03:40:57.043Z,69.07
2017-12-10T03:43:24.595Z,68.93
2017-12-10T03:45:52.430Z,68.74
2017-12-10T03:48:20.212Z,69.22
2017-12-10T03:50:47.781Z,68.56
2017-12-10T03:53:16.328Z,68.13
2017-12-10T03:55:43.880Z,68.67
2017-12-10T03:58:11.666Z,67.42
2017-12-10T04:00:39.289Z,67.63
2017-12-10T04:03:07.079Z,67.06
2017-12-10T04:05:34.715Z,67.28
2017-12-10T04:08:02.351Z,67.19
2017-12-10T04:10:29.923Z,66.61
2017-12-10T04:12:57.738Z,66.59
2017-12-10T04:15:25.383Z,65.99
2017-12-10T04:17:53.158Z,65.68
2017-12-10T04:20:20.917Z,66.14
2017-12-10T04:22:49.380Z,65.83
2017-12-10T04:25:17.136Z,66.00
2017-12-10T04:27:44.666Z,66.33
2017-12-10T04:30:12.394Z,66.35
2017-12-10T04:32:39.975Z,65.70
2017-12-10T04:35:07.541Z,65.49
2017-12-10T04:40:04.159Z,65.74
2017-12-10T04:42:34.912Z,66.18
2017-12-10T04:45:02.585Z,66.31
2017-12-10T04:47:30.192Z,66.52
2017-12-10T04:49:57.816Z,67.63
2017-12-10T04:52:25.603Z,67.68
2017-12-10T04:54:53.219Z,67.81
2017-12-10T04:57:20.842Z,68.40
2017-12-10T04:59:48.658Z,68.24
2017-12-10T05:02:16.361Z,68.43
2017-12-10T05:04:43.917Z,68.18
2017-12-10T05:07:11.676Z,68.10
2017-12-10T05:09:39.318Z,68.67
2017-12-10T05:12:06.918Z,68.45
2017-12-10T05:14:34.485Z,68.70
2017-12-10T05:17:02.114Z,69.24
2017-12-10T05:19:29.869Z,68.48
2017-12-10T05:21:57.394Z,68.57
2017-12-10T05:24:25.163Z,67.62
2017-12-10T05:26:52.925Z,67.79
2017-12-10T05:29:20.745Z,67.09
2017-12-10T05:31:48.492Z,66.89
2017-12-10T05:34:16.908Z,66.83
2017-12-10T05:36:44.965Z,66.83
2017-12-10T05:39:12.564Z,66.84
2017-12-10T05:41:40.150Z,66.77
2017-12-10T05:44:08.115Z,66.61
2017-12-10T05:46:35.758Z,66.38
2017-12-10T05:49:03.649Z,66.88
2017-12-10T05:51:31.870Z,66.16
2017-12-10T05:53:59.685Z,65.72
2017-12-10T05:56:28.006Z,66.15
2017-12-10T05:58:56.321Z,66.09
2017-12-10T06:01:24.014Z,66.37
2017-12-10T06:03:51.611Z,66.57
2017-12-10T06:06:19.394Z,66.23
2017-12-10T06:08:47.015Z,65.63
2017-12-10T06:11:14.617Z,65.85
2017-12-10T06:13:42.219Z,65.61
2017-12-10T06:16:09.976Z,65.51
2017-12-10T06:18:37.740Z,65.64
2017-12-10T06:21:05.433Z,65.58
2017-12-10T06:23:33.029Z,65.06
2017-12-10T06:26:00.580Z,64.63
2017-12-10T06:28:28.376Z,64.96
2017-12-10T06:30:55.970Z,64.94
2017-12-10T06:33:23.574Z,65.14
2017-12-10T06:35:51.167Z,64.73
2017-12-10T06:38:18.898Z,65.01
2017-12-10T06:40:46.495Z,64.65
2017-12-10T06:43:14.269Z,64.86
2017-12-10T06:45:42.073Z,64.80
2017-12-10T06:48:09.846Z,64.98
2017-12-10T06:50:37.473Z,64.65
2017-12-10T06:53:05.057Z,64.28
2017-12-10T06:55:32.674Z,64.32
2017-12-10T06:58:00.242Z,64.99
2017-12-10T07:00:27.868Z,65.01
2017-12-10T07:02:56.521Z,65.13
2017-12-10T07:05:24.595Z,64.68
2017-12-10T07:07:52.215Z,64.85
2017-12-10T07:10:19.784Z,65.29
2017-12-10T07:12:47.351Z,65.50
2017-12-10T07:15:14.944Z,65.38
2017-12-10T07:17:42.729Z,65.50
2017-12-10T07:20:10.537Z,64.96
2017-12-10T07:22:38.150Z,64.78
2017-12-10T07:25:06.510Z,76.98
2017-12-10T07:27:34.370Z,79.22
2017-12-10T07:30:04.885Z,74.05
2017-12-10T07:32:35.317Z,73.52
2017-12-10T07:35:03.090Z,70.69
2017-12-10T07:37:30.685Z,58.69
2017-12-10T07:39:58.454Z,55.98
2017-12-10T07:42:26.264Z,56.17
2017-12-10T07:44:53.834Z,56.24
2017-12-10T07:47:22.046Z,56.01
2017-12-10T07:49:49.793Z,56.95
2017-12-10T07:52:17.385Z,56.77
2017-12-10T07:54:44.933Z,56.80
2017-12-10T07:57:12.550Z,56.83
2017-12-10T07:59:40.235Z,56.62
2017-12-10T08:02:07.965Z,57.21
2017-12-10T08:04:35.568Z,58.17
2017-12-10T08:07:03.359Z,58.43
2017-12-10T08:09:31.002Z,58.64
2017-12-10T08:11:58.789Z,58.69
2017-12-10T08:14:26.385Z,58.42
2017-12-10T08:16:54.060Z,57.77
2017-12-10T08:19:21.850Z,57.63
2017-12-10T08:21:49.460Z,61.11
2017-12-10T08:24:17.050Z,60.57
2017-12-10T08:26:44.657Z,60.72
2017-12-10T08:29:12.454Z,59.51
2017-12-10T08:31:40.066Z,57.92
2017-12-10T08:34:07.884Z,57.53
2017-12-10T08:36:35.510Z,56.62
2017-12-10T08:39:03.547Z,56.76
2017-12-10T08:41:31.188Z,56.17
2017-12-10T08:43:58.803Z,56.68
2017-12-10T08:46:26.434Z,56.23
2017-12-10T08:48:54.146Z,56.80
2017-12-10T08:51:21.760Z,56.85
2017-12-10T08:53:49.424Z,56.83
2017-12-10T08:56:17.070Z,56.78
2017-12-10T08:58:44.705Z,56.29
2017-12-10T09:01:12.417Z,56.25
2017-12-10T09:03:41.180Z,55.58
2017-12-10T09:06:09.832Z,55.56
2017-12-10T09:08:38.142Z,55.10
2017-12-10T09:11:06.707Z,55.42
2017-12-10T09:13:35.009Z,55.49
2017-12-10T09:16:03.123Z,55.01
2017-12-10T09:18:30.878Z,54.04
2017-12-10T09:20:58.611Z,54.51
2017-12-10T09:23:26.751Z,54.49
2017-12-10T09:25:54.544Z,53.16
2017-12-10T09:28:22.065Z,53.93
2017-12-10T09:30:49.633Z,54.06
2017-12-10T09:33:17.248Z,54.82
2017-12-10T09:35:44.815Z,54.08
2017-12-10T09:38:12.573Z,51.13
2017-12-10T09:40:40.144Z,49.83
2017-12-10T09:43:07.731Z,47.60
2017-12-10T09:45:35.336Z,46.65
2017-12-10T09:48:02.938Z,45.59
2017-12-10T09:50:30.556Z,44.95
2017-12-10T09:52:58.120Z,44.08
2017-12-10T09:55:25.681Z,44.88
2017-12-10T09:57:53.355Z,44.05
2017-12-10T10:00:20.982Z,42.75
2017-12-10T10:02:48.541Z,42.85
2017-12-10T10:05:16.107Z,42.91
2017-12-10T10:07:44.442Z,42.53
2017-12-10T10:10:12.252Z,41.24
2017-12-10T10:12:40.060Z,41.95
2017-12-10T10:15:07.748Z,44.73
2017-12-10T10:17:35.560Z,39.17
2017-12-10T10:20:03.147Z,40.08
2017-12-10T10:22:31.143Z,38.73
2017-12-10T10:24:58.815Z,38.80
2017-12-10T10:27:26.603Z,38.41
2017-12-10T10:29:54.260Z,39.61
2017-12-10T10:32:22.602Z,41.23
2017-12-10T10:34:50.250Z,42.80
2017-12-10T10:37:18.084Z,43.29
2017-12-10T10:39:45.756Z,43.91
2017-12-10T10:42:14.129Z,43.54
2017-12-10T10:44:42.552Z,43.12
2017-12-10T10:47:10.293Z,42.62
2017-12-10T10:49:38.199Z,42.26
2017-12-10T10:52:05.789Z,42.71
2017-12-10T10:54:34.120Z,41.67
2017-12-10T10:57:02.527Z,42.07
2017-12-10T10:59:30.148Z,42.20
2017-12-10T11:01:57.766Z,41.79
2017-12-10T11:04:25.470Z,41.54
2017-12-10T11:06:53.235Z,41.71
2017-12-10T11:09:20.901Z,41.87
2017-12-10T11:11:48.678Z,41.55
2017-12-10T11:14:16.526Z,42.09
2017-12-10T11:16:45.145Z,42.35
2017-12-10T11:19:14.049Z,41.65
2017-12-10T11:21:41.631Z,42.07
2017-12-10T11:24:09.454Z,42.50
2017-12-10T11:26:37.012Z,42.38
2017-12-10T11:29:04.622Z,42.40
2017-12-10T11:31:32.249Z,42.39
2017-12-10T11:34:00.069Z,42.78
2017-12-10T11:36:27.864Z,42.70
2017-12-10T11:38:55.725Z,41.26
2017-12-10T11:41:24.938Z,40.91
2017-12-10T11:43:56.710Z,41.82
2017-12-10T11:46:27.061Z,40.08
2017-12-10T11:48:56.003Z,39.46
2017-12-10T11:51:26.468Z,40.92
2017-12-10T11:53:58.586Z,41.28
2017-12-10T11:56:26.493Z,39.14
2017-12-10T11:58:54.316Z,38.51
2017-12-10T12:01:21.906Z,39.26
2017-12-10T12:03:50.415Z,39.78
2017-12-10T12:06:18.118Z,39.95
2017-12-10T12:08:45.744Z,40.59
2017-12-10T12:11:13.355Z,40.55
2017-12-10T12:13:41.188Z,38.99
2017-12-10T12:16:09.381Z,38.74
2017-12-10T12:18:37.151Z,38.96
2017-12-10T12:21:04.737Z,38.81
2017-12-10T12:23:32.374Z,40.27
2017-12-10T12:26:00.510Z,40.12
2017-12-10T12:28:28.749Z,40.32
2017-12-10T12:30:56.421Z,40.50
2017-12-10T12:33:23.955Z,41.25
2017-12-10T12:35:51.547Z,40.53
2017-12-10T12:38:19.189Z,40.95
2017-12-10T12:40:46.847Z,41.04
2017-12-10T12:43:14.647Z,40.49
2017-12-10T12:45:42.316Z,40.69
2017-12-10T12:48:09.872Z,42.76
2017-12-10T12:50:37.484Z,40.70
2017-12-10T12:53:05.084Z,40.77
2017-12-10T12:55:32.652Z,40.03
2017-12-10T12:58:00.326Z,41.29
2017-12-10T13:00:27.913Z,39.86
2017-12-10T13:02:55.532Z,39.98
2017-12-10T13:05:23.345Z,41.57
2017-12-10T13:07:51.613Z,41.42
2017-12-10T13:10:19.206Z,41.57
2017-12-10T13:12:46.792Z,41.56
2017-12-10T13:15:14.384Z,41.84
2017-12-10T13:17:42.178Z,41.50
2017-12-10T13:20:09.744Z,41.94
2017-12-10T13:22:37.335Z,41.94
2017-12-10T13:25:04.975Z,40.87
2017-12-10T13:27:32.578Z,41.42
2017-12-10T13:30:00.614Z,41.69
2017-12-10T13:32:28.439Z,42.07
2017-12-10T13:34:56.315Z,42.50
2017-12-10T13:37:24.130Z,43.14
2017-12-10T13:39:51.797Z,43.27
2017-12-10T13:42:20.706Z,43.28
2017-12-10T13:44:48.634Z,43.60
2017-12-10T13:47:16.872Z,43.58
2017-12-10T13:49:44.749Z,44.89
2017-12-10T13:52:12.736Z,43.91
2017-12-10T13:54:40.312Z,44.20
2017-12-10T13:57:07.986Z,44.58
2017-12-10T13:59:35.815Z,45.17
2017-12-10T14:02:03.501Z,45.08
2017-12-10T14:04:31.241Z,44.89
2017-12-10T14:06:58.816Z,44.02
2017-12-10T14:09:26.649Z,43.08
2017-12-10T14:11:55.135Z,43.54
2017-12-10T14:14:22.814Z,44.82
2017-12-10T14:16:50.505Z,43.78
2017-12-10T14:19:18.061Z,44.13
2017-12-10T14:21:45.910Z,44.70
2017-12-10T14:24:13.491Z,45.47
2017-12-10T14:26:41.052Z,45.57
2017-12-10T14:29:09.452Z,46.58
2017-12-10T14:31:37.083Z,46.15
2017-12-10T14:34:04.711Z,46.08
2017-12-10T14:36:32.494Z,47.06
2017-12-10T14:39:00.320Z,47.29
2017-12-10T14:41:28.891Z,47.91
2017-12-10T14:43:56.734Z,46.62
2017-12-10T14:46:25.269Z,48.25
2017-12-10T14:48:52.917Z,48.80
2017-12-10T14:51:20.521Z,48.11
2017-12-10T14:53:48.133Z,46.90
2017-12-10T14:56:15.856Z,46.98
2017-12-10T14:58:44.309Z,47.03
2017-12-10T15:01:12.085Z,49.13
2017-12-10T15:03:40.013Z,50.41
2017-12-10T15:06:11.343Z,48.89
2017-12-10T15:08:38.921Z,49.55
2017-12-10T15:11:07.793Z,49.27
2017-12-10T15:13:35.549Z,49.76
2017-12-10T15:16:04.446Z,49.57
2017-12-10T15:18:33.084Z,50.25
2017-12-10T15:21:00.867Z,50.94
2017-12-10T15:23:28.789Z,52.24
2017-12-10T15:25:57.455Z,52.04
2017-12-10T15:28:25.697Z,51.93
2017-12-10T15:30:53.310Z,54.16
2017-12-10T15:33:21.642Z,52.01
2017-12-10T15:35:49.370Z,52.16
2017-12-10T15:38:16.965Z,53.80
2017-12-10T15:40:44.693Z,54.55
2017-12-10T15:43:13.326Z,53.68
2017-12-10T15:45:42.290Z,52.63
2017-12-10T15:48:10.032Z,54.63
2017-12-10T15:50:37.694Z,53.79
2017-12-10T15:53:05.826Z,51.70
2017-12-10T15:55:34.312Z,54.02
2017-12-10T15:58:02.370Z,53.05
2017-12-10T16:00:30.555Z,55.08
2017-12-10T16:03:00.841Z,54.12
2017-12-10T16:05:28.775Z,52.78
2017-12-10T16:07:57.349Z,52.62
2017-12-10T16:10:25.669Z,54.94
2017-12-10T16:12:53.712Z,55.80
2017-12-10T16:15:24.238Z,56.79
2017-12-10T16:17:54.679Z,56.39
2017-12-10T16:20:24.126Z,55.72
2017-12-10T16:22:52.791Z,54.65
2017-12-10T16:25:22.216Z,56.70
2017-12-10T16:27:50.927Z,56.99
2017-12-10T16:30:20.424Z,56.31
2017-12-10T16:32:48.085Z,56.51
2017-12-10T16:35:15.936Z,55.12
2017-12-10T16:37:43.634Z,54.78
2017-12-10T16:40:11.643Z,55.48
2017-12-10T16:42:39.219Z,54.32
2017-12-10T16:45:06.939Z,55.90
2017-12-10T16:47:34.545Z,55.98
2017-12-10T16:50:02.331Z,56.93
2017-12-10T16:52:29.941Z,57.11
2017-12-10T16:54:57.929Z,56.39
2017-12-10T16:57:25.520Z,56.82
2017-12-10T16:59:53.159Z,55.85
2017-12-10T17:02:21.031Z,55.15
2017-12-10T17:04:53.345Z,54.74
2017-12-10T17:07:20.959Z,54.98
2017-12-10T17:09:49.214Z,55.08
2017-12-10T17:12:16.818Z,55.25
2017-12-10T17:14:44.423Z,56.56
2017-12-10T17:17:12.586Z,57.38
2017-12-10T17:19:40.148Z,56.04
2017-12-10T17:22:07.794Z,56.00
2017-12-10T17:24:37.028Z,56.65
2017-12-10T17:27:04.634Z,57.82
2017-12-10T17:29:32.538Z,57.28
2017-12-10T17:32:00.250Z,58.96
2017-12-10T17:34:28.100Z,57.67
2017-12-10T17:36:57.226Z,56.06
2017-12-10T17:39:25.707Z,56.74
2017-12-10T17:41:53.385Z,58.55
2017-12-10T17:44:22.095Z,58.08
2017-12-10T17:46:50.524Z,75.58
2017-12-10T17:49:18.606Z,59.77
2017-12-10T17:51:46.482Z,59.37
2017-12-10T17:54:15.147Z,59.21
2017-12-10T17:56:44.091Z,58.51
2017-12-10T17:59:13.442Z,59.09
2017-12-10T18:01:42.235Z,59.34
2017-12-10T18:04:10.158Z,58.75
2017-12-10T18:06:37.757Z,59.10
2017-12-10T18:09:05.385Z,59.68
2017-12-10T18:11:33.582Z,59.06
2017-12-10T18:14:01.347Z,60.60
2017-12-10T18:16:29.018Z,62.67
2017-12-10T18:18:56.876Z,62.73
2017-12-10T18:21:24.434Z,61.12
2017-12-10T18:23:52.158Z,63.02
2017-12-10T18:26:20.026Z,63.07
2017-12-10T18:28:47.648Z,62.31
2017-12-10T18:31:15.266Z,62.04
2017-12-10T18:33:43.090Z,62.13
2017-12-10T18:36:10.686Z,62.32
2017-12-10T18:38:38.678Z,63.97
2017-12-10T18:41:06.303Z,62.63
2017-12-10T18:43:33.906Z,64.87
2017-12-10T18:46:01.491Z,63.96
2017-12-10T18:48:29.065Z,62.88
2017-12-10T18:50:57.254Z,63.29
2017-12-10T18:53:24.974Z,64.73
2017-12-10T18:55:52.586Z,63.53
2017-12-10T18:58:20.611Z,63.37
2017-12-10T19:00:48.460Z,63.06
2017-12-10T19:03:16.524Z,62.08
2017-12-10T19:05:44.165Z,64.02
2017-12-10T19:08:11.908Z,62.98
2017-12-10T19:10:39.634Z,62.37
2017-12-10T19:13:08.038Z,61.95
2017-12-10T19:15:35.825Z,60.97
2017-12-10T19:18:03.430Z,60.90
2017-12-10T19:20:31.769Z,60.67
2017-12-10T19:22:59.418Z,61.74
2017-12-10T19:25:27.256Z,62.27
2017-12-10T19:27:54.840Z,60.82
2017-12-10T19:30:22.718Z,59.70
2017-12-10T19:32:50.516Z,60.02
2017-12-10T19:35:18.496Z,60.25
2017-12-10T19:37:47.312Z,59.72
2017-12-10T19:40:15.506Z,59.62
2017-12-10T19:42:45.243Z,59.19
2017-12-10T19:45:13.684Z,59.71
2017-12-10T19:47:41.555Z,60.15
2017-12-10T19:50:09.344Z,59.34
2017-12-10T19:52:36.958Z,60.23
2017-12-10T19:55:04.596Z,59.91
2017-12-10T19:57:32.270Z,61.49
2017-12-10T20:00:00.062Z,59.28
2017-12-10T20:02:27.701Z,57.58
2017-12-10T20:04:55.494Z,59.83
2017-12-10T20:07:23.997Z,60.34
2017-12-10T20:09:51.778Z,60.23
2017-12-10T20:12:19.529Z,59.14
2017-12-10T20:14:47.343Z,59.52
2017-12-10T20:17:15.042Z,60.46
2017-12-10T20:19:42.814Z,59.50
2017-12-10T20:22:10.620Z,59.38
2017-12-10T20:24:38.308Z,60.30
2017-12-10T20:27:05.870Z,60.81
2017-12-10T20:29:34.324Z,60.35
2017-12-10T20:32:01.953Z,59.91
2017-12-10T20:34:29.697Z,60.14
2017-12-10T20:36:57.300Z,59.46
2017-12-10T20:39:24.942Z,59.83
2017-12-10T20:41:52.550Z,61.36
2017-12-10T20:44:20.331Z,61.39
2017-12-10T20:46:47.967Z,61.93
2017-12-10T20:49:15.635Z,61.81
2017-12-10T20:51:44.182Z,61.22
2017-12-10T20:54:11.881Z,61.27
2017-12-10T20:56:39.444Z,60.02
2017-12-10T20:59:06.980Z,61.17
2017-12-10T21:01:34.546Z,60.06
2017-12-10T21:04:02.415Z,61.23
2017-12-10T21:06:29.970Z,60.40
2017-12-10T21:08:57.574Z,62.22
2017-12-10T21:11:25.163Z,60.73
2017-12-10T21:13:52.726Z,61.59
2017-12-10T21:16:20.336Z,62.44
2017-12-10T21:18:49.634Z,60.76
2017-12-10T21:21:17.398Z,61.52
2017-12-10T21:23:44.984Z,62.34
2017-12-10T21:26:12.799Z,62.68
2017-12-10T21:28:40.596Z,60.88
2017-12-10T21:31:08.756Z,61.49
2017-12-10T21:33:36.327Z,61.89
2017-12-10T21:36:03.904Z,61.80
2017-12-10T21:38:31.568Z,60.75
2017-12-10T21:40:59.123Z,60.47
2017-12-10T21:43:26.686Z,61.66
2017-12-10T21:45:54.307Z,61.21
2017-12-10T21:48:21.873Z,61.25
2017-12-10T21:50:49.455Z,60.99
2017-12-10T21:53:17.070Z,61.77
2017-12-10T21:55:45.494Z,60.93
2017-12-10T21:58:13.122Z,60.79
2017-12-10T22:00:40.765Z,60.54
2017-12-10T22:03:08.314Z,61.10
2017-12-10T22:05:36.456Z,61.06
2017-12-10T22:08:04.094Z,61.46
2017-12-10T22:10:31.876Z,62.68
2017-12-10T22:12:59.465Z,59.98
2017-12-10T22:15:27.099Z,61.13
2017-12-10T22:17:54.900Z,60.11
2017-12-10T22:20:22.606Z,60.98
2017-12-10T22:22:50.178Z,61.87
2017-12-10T22:25:17.713Z,61.28
2017-12-10T22:27:45.251Z,60.81
2017-12-10T22:30:12.887Z,61.21
2017-12-10T22:32:40.480Z,59.54
2017-12-10T22:35:08.381Z,61.77
2017-12-10T22:37:36.721Z,60.38
2017-12-10T22:40:04.283Z,59.84
2017-12-10T22:42:32.168Z,61.16
2017-12-10T22:44:59.808Z,62.90
2017-12-10T22:47:27.334Z,62.23
2017-12-10T22:49:54.858Z,62.69
2017-12-10T22:52:22.481Z,63.05
2017-12-10T22:54:50.274Z,63.10
2017-12-10T22:57:17.816Z,63.23
2017-12-10T22:59:45.378Z,63.53
2017-12-10T23:02:13.068Z,63.00
2017-12-10T23:04:40.588Z,62.08
2017-12-10T23:07:08.462Z,60.30
2017-12-10T23:09:36.020Z,59.45
2017-12-10T23:12:03.827Z,59.96
2017-12-10T23:14:42.210Z,60.07
2017-12-10T23:17:09.745Z,61.42
2017-12-10T23:19:37.281Z,59.16
2017-12-10T23:22:04.845Z,61.52
2017-12-10T23:24:32.447Z,62.25
2017-12-10T23:26:59.975Z,62.68
2017-12-10T23:29:27.555Z,63.22
2017-12-10T23:31:55.210Z,62.11
2017-12-10T23:34:22.763Z,60.42
2017-12-10T23:36:50.566Z,62.21
2017-12-10T23:39:18.125Z,63.37
2017-12-10T23:41:45.674Z,62.20
2017-12-10T23:44:13.228Z,62.85
2017-12-10T23:46:40.877Z,60.56
2017-12-10T23:49:08.425Z,61.44
2017-12-10T23:51:35.944Z,59.93
2017-12-10T23:54:03.759Z,59.54
2017-12-10T23:56:31.290Z,60.65
2017-12-10T23:58:58.837Z,62.04
